KSTS/STS METAR and TAF weather

Enter ICAO airport designator
Station Type Date Time Source
KSTS METAR 2019/02/22 22:53 UTC NOAA

KSTS 222253Z 20004KT 10SM CLR 14/M06 A3007 RMK AO2 SLP179 T01391056


Station Type Date Time Source
KSTS Decoded METAR 2019/02/22 22:53 UTC NOAA

SANTA ROSA SONOMA COUNTY, CA, United States (KSTS) 38-30N 122-49W 39M
Feb 22, 2019 - 05:53 PM EST / 2019.02.22 2253 UTC
Wind: from the SSW (200 degrees) at 5 MPH (4 KT):0
Visibility: 10 mile(s):0
Sky conditions: clear
Temperature: 57.0 F (13.9 C)
Dew Point: 21.9 F (-5.6 C)
Relative Humidity: 25%
Pressure (altimeter): 30.07 in. Hg (1018 hPa)
ob: KSTS 222253Z 20004KT 10SM CLR 14/M06 A3007 RMK AO2 SLP179 T01391056
cycle: 23

Station Type Date Time Source
KSTS TAF 2019/02/22 18:28 UTC NOAA

TAF KSTS 221726Z 2218/2318 VRB03KT P6SM SKC
FM222300 25004KT P6SM FEW200
FM230400 19003KT P6SM FEW200
FM231500 00000KT 1/2SM FG OVC004


Example: see airport list